CZFN/ZFN METAR and TAF weather

Enter ICAO airport designator
Station Type Date Time Source
CZFN METAR 2021/10/22 23:00 UTC NOAA

CZFN 222300Z 13016G24KT 15SM BKN190 BKN210 05/01 A2921 RMK AC5CC2 LAST STFD OBS NEXT 251500 PRESFR SLP898


Station Type Date Time Source
CZFN Decoded METAR 2021/10/22 23:00 UTC NOAA

Fort Norman Airport, Canada (CZFN) 64-55N 125-34W
Oct 22, 2021 - 07:00 PM EDT / 2021.10.22 2300 UTC
Wind: from the SE (130 degrees) at 18 MPH (16 KT) gusting to 28 MPH (24 KT):0
Visibility: 15 mile(s):0
Sky conditions: mostly cloudy
Temperature: 41 F (5 C)
Dew Point: 33 F (1 C)
Relative Humidity: 75%
Pressure (altimeter): 29.21 in. Hg (989 hPa)
Pressure tendency: falling rapidly
ob: CZFN 222300Z 13016G24KT 15SM BKN190 BKN210 05/01 A2921 RMK AC5CC2 LAST STFD OBS NEXT 251500 PRESFR SLP898
cycle: 23

Station Type Date Time Source
CZFN TAF UTC NOAA

Error!

Example: see airport list